Aérodrome :
LOGIN :

S'inscrire | Disclaimer

   EN    FR    IT 

 










Légende :    VFR   VFR Marginal   IFR   IFR Intensif   IFR Très Intensif
Visi : 
Plafond : 
>= 8 km
>= 3000ft
5 à 8 km
1000 à 3000 ft
1500m à 5 km
500 à 1000 ft
800 à 1500m
200 à 500 ft
< 800m
< 200 ft
Symboles :   Orages  Brouillard  Fortes neiges  Fortes précipitations  Vent > 20 kt
SIGMETs :   Divers  Orages  Givrage  Turbulence  Onde Orograph.  Cendres Volcan.







- Altitude de l'aérodrome : 291 ft
- Code IATA : ORY
- Voir les cartes d'approche


LFPO - Paris-Orly

DERNIER METAR :
  • 250630Z 01006KT 340V050 9999 -RA FEW015 OVC040 06/02 Q1012 NOSIG

METARs EXPIRÉS :
  • 250600Z 36010G22KT 320V020 9999 -RA SCT015 OVC028 06/02 Q1012 NOSIG
  • 250530Z 35013KT 310V020 9999 -RA BKN016 OVC021 07/03 Q1011 NOSIG
  • 250500Z 35011KT 8000 -RA SCT011 BKN020 08/05 Q1011 NOSIG
  • 250430Z 36008KT 340V080 9999 FEW026 BKN036 09/03 Q1010 NOSIG
  • 250400Z 02008KT 9999 FEW022 BKN033 09/03 Q1010 NOSIG
  • 250330Z 33008KT 9999 BKN018 BKN030 09/05 Q1010 NOSIG

TAF TAF LFPO
Valide du 25 à 06h jusqu'au 26 à 12h UTC


250500Z 2506/2612 35006KT 9999 BKN020
TEMPO 2506/2510 -RA BKN014
BECMG 2511/2513 CAVOK
TEMPO 2610/2612 -SHRA SCT030TCU
ATIS : +33 1 49 75 65 80
Pas de NOTAMs connus pour ce terrain.



MET'MAP, la Météo Aéronautique d'un coup d'oeil ! - Copyright ORBIFLY Décembre 2007 - Disclaimer

ORBIFLY MET'MAP TEAM :

Programmation & Développement : Alexandra Zaïnal
Conception & Développement : Baudouin d'Aumeries
Co-Programmation & Développement : Marc-Olivier Méhu
Soutien technique & logistique : Manuel Goepfert

Contact : metmap@orbifly.com




SOURCES & CREDITS :

   NOAA